Time;durP1;ratioP1;P1;durP2;ratioP2;P2;SDS_P1;SDS_P2;PMS_P1;PMS_P2;Temp;Humidity;BMP_temperature;BMP_pressure;BME280_temperature;BME280_humidity;BME280_pressure;Samples;Min_cycle;Max_cycle;Signal;HPM_P1;HPM_P2
2022/07/30 00:06:18;;;;;;;8.60;7.80;;;;;19.10;98856.00;;;;16768338;28;20308;-85
2022/07/30 00:14:20;;;;;;;9.37;8.47;;;;;19.20;98855.00;;;;16764923;28;20316;-85
2022/07/30 00:22:24;;;;;;;10.10;9.30;;;;;18.90;98846.00;;;;16750336;28;20693;-85
2022/07/30 00:30:26;;;;;;;8.97;8.20;;;;;18.70;98856.00;;;;16762678;28;20253;-85
2022/07/30 00:38:30;;;;;;;8.37;7.77;;;;;18.90;98856.00;;;;16764266;28;20227;-85
2022/07/30 00:46:33;;;;;;;8.53;7.93;;;;;18.90;98861.00;;;;16770987;28;20690;-85
2022/07/30 00:54:37;;;;;;;8.83;8.03;;;;;18.80;98872.00;;;;16773031;28;20280;-85
2022/07/30 01:02:39;;;;;;;8.10;7.40;;;;;19.80;98863.00;;;;16761417;28;20311;-85
2022/07/30 01:10:43;;;;;;;8.50;7.70;;;;;19.00;98877.00;;;;16774887;28;20461;-85
2022/07/30 01:27:09;;;;;;;8.67;8.07;;;;;18.70;98893.00;;;;16749859;28;20271;-85
2022/07/30 01:35:12;;;;;;;8.37;7.67;;;;;18.80;98883.00;;;;16743754;28;20662;-85
2022/07/30 01:43:17;;;;;;;8.67;8.00;;;;;19.10;98889.00;;;;16759990;28;20197;-85
2022/07/30 01:51:20;;;;;;;10.27;8.13;;;;;19.10;98901.00;;;;16748314;28;20711;-85
2022/07/30 01:59:31;;;;;;;8.00;7.50;;;;;19.10;98899.00;;;;16771979;28;20582;-85
2022/07/30 02:07:37;;;;;;;8.20;7.60;;;;;19.50;98900.00;;;;16755793;28;20745;-85
2022/07/30 02:15:43;;;;;;;9.93;9.00;;;;;18.90;98899.00;;;;16766692;28;20779;-85
2022/07/30 02:23:49;;;;;;;9.27;8.43;;;;;18.50;98891.00;;;;16768637;28;20189;-85
2022/07/30 02:31:53;;;;;;;9.40;8.60;;;;;18.40;98898.00;;;;16757332;28;20605;-85
2022/07/30 02:39:56;;;;;;;10.10;9.10;;;;;18.80;98899.00;;;;16768542;28;20228;-85
2022/07/30 02:48:02;;;;;;;10.23;9.37;;;;;19.00;98904.00;;;;16778136;28;20216;-85
2022/07/30 02:56:06;;;;;;;9.63;8.60;;;;;18.20;98911.00;;;;16772426;28;20229;-86
2022/07/30 03:04:10;;;;;;;9.87;8.97;;;;;18.30;98920.00;;;;16763158;28;20212;-85
2022/07/30 03:12:13;;;;;;;9.80;8.80;;;;;18.10;98927.00;;;;16791635;28;20222;-85
2022/07/30 03:20:21;;;;;;;10.90;9.90;;;;;18.50;98927.00;;;;16770489;28;20233;-86
2022/07/30 03:28:25;;;;;;;10.37;9.40;;;;;18.00;98932.00;;;;16752791;28;20213;-86
2022/07/30 03:36:29;;;;;;;10.17;9.37;;;;;17.80;98944.00;;;;16772765;28;20231;-86
2022/07/30 03:44:34;;;;;;;10.00;9.10;;;;;17.80;98947.00;;;;16766027;28;20208;-85
2022/07/30 03:52:41;;;;;;;10.93;10.03;;;;;18.30;98956.00;;;;16769580;28;20244;-85
2022/07/30 04:00:48;;;;;;;9.97;8.97;;;;;17.60;98963.00;;;;16749928;28;20233;-85
2022/07/30 04:08:52;;;;;;;10.60;9.53;;;;;19.00;98959.00;;;;16754528;28;20226;-85
2022/07/30 04:16:59;;;;;;;8.97;8.27;;;;;18.60;98970.00;;;;16745656;28;20271;-85
2022/07/30 04:25:05;;;;;;;9.30;8.60;;;;;17.70;98990.00;;;;16762500;28;20213;-86
2022/07/30 04:33:08;;;;;;;9.13;8.23;;;;;17.80;98994.00;;;;16746539;28;20225;-86
2022/07/30 04:41:18;;;;;;;7.50;6.97;;;;;18.90;98998.00;;;;16764917;28;20249;-85
2022/07/30 04:49:47;;;;;;;7.47;6.87;;;;;18.60;99006.00;;;;16757171;28;20275;-85
2022/07/30 04:57:53;;;;;;;8.87;8.27;;;;;18.60;99006.00;;;;16748953;28;20709;-85
2022/07/30 05:05:56;;;;;;;11.40;9.60;;;;;20.60;99000.00;;;;16759551;28;20224;-83
2022/07/30 05:14:00;;;;;;;7.27;6.70;;;;;21.70;98995.00;;;;16754556;28;20248;-85
2022/07/30 05:22:04;;;;;;;8.60;7.10;;;;;22.70;98998.00;;;;16744286;28;20718;-84
2022/07/30 05:30:10;;;;;;;6.43;5.93;;;;;21.80;99007.00;;;;16749280;28;20590;-84
2022/07/30 05:38:18;;;;;;;13.83;7.60;;;;;22.50;99012.00;;;;16774533;28;20762;-84
2022/07/30 05:46:42;;;;;;;7.93;7.10;;;;;20.90;99013.00;;;;16743564;28;20221;-84
2022/07/30 05:54:45;;;;;;;10.70;6.93;;;;;22.00;99012.00;;;;16756624;28;20225;-83
2022/07/30 06:03:00;;;;;;;8.20;6.60;;;;;23.90;99010.00;;;;16752286;28;20340;-83
2022/07/30 06:11:32;;;;;;;7.93;7.33;;;;;24.10;99018.00;;;;16726755;28;20911;-83
2022/07/30 06:19:36;;;;;;;10.00;8.40;;;;;24.40;99017.00;;;;16760845;28;20714;-83
2022/07/30 06:27:40;;;;;;;7.83;6.93;;;;;25.00;99011.00;;;;16743848;28;20230;-82
2022/07/30 06:35:45;;;;;;;9.10;7.50;;;;;25.30;99021.00;;;;16740177;28;20585;-83
2022/07/30 06:43:52;;;;;;;8.33;7.43;;;;;25.00;99028.00;;;;16744363;28;20520;-82
2022/07/30 06:52:23;;;;;;;9.67;6.10;;;;;25.70;99023.00;;;;16757055;28;20237;-83
2022/07/30 07:00:27;;;;;;;9.00;6.07;;;;;26.20;99030.00;;;;16766450;28;20236;-83
2022/07/30 07:08:33;;;;;;;7.23;6.53;;;;;26.70;99030.00;;;;16760765;28;20213;-83
2022/07/30 07:16:36;;;;;;;23.70;9.90;;;;;26.30;99028.00;;;;16761956;28;20331;-83
2022/07/30 07:25:10;;;;;;;5.90;5.30;;;;;24.90;99038.00;;;;16688237;28;20229;-82
2022/07/30 07:33:12;;;;;;;7.73;6.40;;;;;25.40;99044.00;;;;16771422;28;20236;-82
2022/07/30 07:41:17;;;;;;;10.90;6.27;;;;;25.00;99048.00;;;;16766333;28;20489;-84
2022/07/30 07:49:20;;;;;;;7.17;5.23;;;;;25.30;99054.00;;;;16793499;28;20229;-83
2022/07/30 07:57:27;;;;;;;6.30;5.80;;;;;25.50;99038.00;;;;16762217;28;20229;-83
2022/07/30 08:05:29;;;;;;;5.37;4.93;;;;;25.20;99041.00;;;;16759534;28;20228;-83
2022/07/30 08:13:43;;;;;;;11.30;5.07;;;;;25.80;99047.00;;;;16755706;28;20235;-82
2022/07/30 08:22:04;;;;;;;6.43;5.30;;;;;25.80;99041.00;;;;16769057;28;20222;-82
2022/07/30 08:30:10;;;;;;;4.57;4.20;;;;;26.30;99038.00;;;;16780312;28;20412;-82
2022/07/30 08:38:13;;;;;;;7.97;4.83;;;;;26.10;99034.00;;;;16757963;28;20321;-82
2022/07/30 08:46:18;;;;;;;4.97;4.47;;;;;26.60;99056.00;;;;16771299;28;20761;-84
2022/07/30 08:54:27;;;;;;;6.53;4.00;;;;;26.70;99047.00;;;;16764102;28;20229;-82
2022/07/30 09:02:32;;;;;;;6.50;4.23;;;;;26.70;99047.00;;;;16751526;28;20632;-83
2022/07/30 09:10:43;;;;;;;4.73;4.43;;;;;26.80;99052.00;;;;16752755;28;20342;-83
2022/07/30 09:18:47;;;;;;;4.80;4.40;;;;;26.40;99062.00;;;;16742291;28;20241;-83
2022/07/30 09:26:54;;;;;;;5.63;4.27;;;;;26.60;99054.00;;;;16762911;28;20316;-82
2022/07/30 09:35:17;;;;;;;5.10;3.97;;;;;26.80;99047.00;;;;16751509;28;20234;-83
2022/07/30 09:43:47;;;;;;;7.00;4.30;;;;;26.80;99062.00;;;;16748435;28;20589;-83
2022/07/30 09:51:59;;;;;;;4.60;3.83;;;;;26.90;99042.00;;;;16694711;28;1092688;-82
2022/07/30 10:00:19;;;;;;;5.93;4.00;;;;;26.80;99050.00;;;;16751775;28;20224;-86
2022/07/30 10:08:41;;;;;;;5.50;4.03;;;;;27.00;99059.00;;;;16752203;28;20229;-87
2022/07/30 10:16:44;;;;;;;5.03;4.37;;;;;27.40;99049.00;;;;16781463;28;20797;-86
2022/07/30 10:24:48;;;;;;;6.90;3.63;;;;;27.50;99050.00;;;;16778148;28;20197;-83
2022/07/30 10:33:11;;;;;;;4.30;3.20;;;;;27.70;99035.00;;;;16763363;28;20298;-85
2022/07/30 10:41:18;;;;;;;3.37;3.07;;;;;28.00;99036.00;;;;16778271;28;20229;-85
2022/07/30 10:49:21;;;;;;;4.20;2.90;;;;;29.10;99025.00;;;;16768303;28;20295;-84
2022/07/30 10:57:25;;;;;;;8.13;3.67;;;;;28.40;99022.00;;;;16772592;28;20612;-86
2022/07/30 11:05:27;;;;;;;3.50;3.07;;;;;28.60;99020.00;;;;16755183;28;20217;-85
2022/07/30 11:13:51;;;;;;;6.80;3.70;;;;;28.20;99030.00;;;;16785812;28;20315;-84
2022/07/30 11:22:23;;;;;;;3.13;2.60;;;;;28.80;99031.00;;;;16765740;28;20338;-85
2022/07/30 11:30:36;;;;;;;7.30;3.83;;;;;29.20;99019.00;;;;16754203;28;20241;-85
2022/07/30 11:38:58;;;;;;;4.33;3.37;;;;;28.70;99019.00;;;;16748637;28;20236;-86
2022/07/30 11:47:03;;;;;;;3.80;3.23;;;;;28.60;99011.00;;;;16768134;28;20221;-84
2022/07/30 11:55:06;;;;;;;3.13;2.80;;;;;28.90;99006.00;;;;16761791;28;20721;-83
2022/07/30 12:03:12;;;;;;;4.70;2.50;;;;;29.00;99006.00;;;;16759472;28;20292;-85
2022/07/30 12:11:15;;;;;;;3.37;2.90;;;;;30.70;98998.00;;;;16774079;28;20225;-85
2022/07/30 12:19:19;;;;;;;3.97;2.73;;;;;29.60;99000.00;;;;16758158;28;20655;-83
2022/07/30 12:27:21;;;;;;;3.20;2.40;;;;;30.00;99001.00;;;;16758549;28;20221;-83
2022/07/30 12:35:43;;;;;;;2.63;2.43;;;;;30.00;98998.00;;;;16771553;28;20316;-82
2022/07/30 12:43:48;;;;;;;4.17;2.40;;;;;29.70;99005.00;;;;16791280;28;20206;-84
2022/07/30 12:51:54;;;;;;;5.40;2.33;;;;;30.30;98983.00;;;;16789577;28;20229;-81
2022/07/30 13:00:05;;;;;;;3.33;2.23;;;;;30.70;98988.00;;;;16794958;28;20229;-82
2022/07/30 13:08:09;;;;;;;2.50;2.30;;;;;29.40;98975.00;;;;16795106;28;20217;-82
2022/07/30 13:16:12;;;;;;;3.60;2.10;;;;;29.80;98963.00;;;;16784998;28;20271;-82
2022/07/30 13:24:16;;;;;;;2.80;2.27;;;;;29.30;98956.00;;;;16773141;28;20205;-83
2022/07/30 13:32:18;;;;;;;2.83;2.40;;;;;31.00;98958.00;;;;16766269;28;20257;-83
2022/07/30 13:40:22;;;;;;;2.00;1.80;;;;;30.60;98937.00;;;;16762915;28;20589;-83
2022/07/30 13:48:25;;;;;;;2.70;1.80;;;;;31.30;98943.00;;;;16755156;28;20217;-85
2022/07/30 13:56:28;;;;;;;2.70;2.20;;;;;30.50;98943.00;;;;16756405;28;20607;-83
2022/07/30 14:04:31;;;;;;;2.47;2.10;;;;;30.60;98938.00;;;;16753554;28;20332;-86
2022/07/30 14:12:36;;;;;;;3.93;2.30;;;;;31.10;98933.00;;;;16780831;28;20584;-86
2022/07/30 14:20:39;;;;;;;2.77;2.30;;;;;31.40;98922.00;;;;16759838;28;20228;-85
2022/07/30 14:28:42;;;;;;;3.43;2.27;;;;;32.20;98920.00;;;;16778492;28;20248;-80
2022/07/30 14:36:45;;;;;;;2.70;2.33;;;;;30.80;98917.00;;;;16775871;28;20265;-79
2022/07/30 14:44:49;;;;;;;2.63;2.43;;;;;31.00;98916.00;;;;16773999;28;20190;-80
2022/07/30 14:52:51;;;;;;;3.83;2.30;;;;;30.70;98911.00;;;;16768352;28;20268;-82
2022/07/30 15:00:55;;;;;;;5.33;2.37;;;;;30.30;98915.00;;;;16773558;28;20283;-84
2022/07/30 15:08:57;;;;;;;2.50;1.90;;;;;30.50;98920.00;;;;16773340;28;20593;-84
2022/07/30 15:17:01;;;;;;;4.30;1.90;;;;;30.70;98917.00;;;;16766400;28;20694;-85
2022/07/30 15:25:04;;;;;;;2.43;2.23;;;;;32.00;98921.00;;;;16778317;28;20274;-84
2022/07/30 15:33:08;;;;;;;3.07;2.23;;;;;30.30;98916.00;;;;16770657;28;20217;-83
2022/07/30 15:41:10;;;;;;;4.50;2.37;;;;;31.50;98919.00;;;;16780502;28;20257;-80
2022/07/30 15:49:14;;;;;;;2.10;1.90;;;;;31.60;98898.00;;;;16762513;28;20300;-77
2022/07/30 15:57:17;;;;;;;2.37;1.80;;;;;32.10;98897.00;;;;16763473;28;20278;-80
2022/07/30 16:05:21;;;;;;;1.90;1.80;;;;;29.90;98908.00;;;;16755371;28;20209;-84
2022/07/30 16:13:23;;;;;;;4.40;2.30;;;;;30.30;98903.00;;;;16779729;28;20229;-72
2022/07/30 16:21:27;;;;;;;3.00;2.00;;;;;31.30;98902.00;;;;16783987;28;20346;-81
2022/07/30 16:29:29;;;;;;;2.53;2.30;;;;;31.00;98890.00;;;;16771172;28;20769;-79
2022/07/30 16:37:33;;;;;;;3.33;2.53;;;;;31.00;98890.00;;;;16776630;28;20229;-79
2022/07/30 16:45:36;;;;;;;6.30;2.50;;;;;31.40;98888.00;;;;16769178;28;20260;-85
2022/07/30 16:53:40;;;;;;;2.63;1.93;;;;;31.80;98888.00;;;;16775262;28;20241;-79
2022/07/30 17:01:42;;;;;;;2.23;2.03;;;;;31.60;98899.00;;;;16774363;28;20233;-80
2022/07/30 17:09:46;;;;;;;1.90;1.80;;;;;30.80;98898.00;;;;16770114;28;20229;-82
2022/07/30 17:17:49;;;;;;;2.10;2.00;;;;;31.30;98904.00;;;;16769732;28;20230;-79
2022/07/30 17:25:53;;;;;;;6.67;2.50;;;;;29.70;98898.00;;;;16759866;28;20270;-77
2022/07/30 17:33:55;;;;;;;5.50;3.00;;;;;30.20;98908.00;;;;16773278;28;20324;-80
2022/07/30 17:41:59;;;;;;;4.57;3.13;;;;;29.40;98922.00;;;;16755809;28;20213;-77
2022/07/30 17:50:01;;;;;;;3.30;2.60;;;;;29.30;98922.00;;;;16750333;28;20363;-78
2022/07/30 17:58:06;;;;;;;2.97;2.67;;;;;29.20;98929.00;;;;16770362;28;20225;-77
2022/07/30 18:06:08;;;;;;;5.30;4.80;;;;;28.40;98936.00;;;;16741757;28;20301;-78
2022/07/30 18:14:12;;;;;;;5.20;4.80;;;;;27.60;98940.00;;;;16750614;28;20308;-78
2022/07/30 18:22:14;;;;;;;6.30;5.80;;;;;27.10;98954.00;;;;16752396;28;20228;-78
2022/07/30 18:30:18;;;;;;;4.47;4.17;;;;;26.80;98949.00;;;;16757113;28;20282;-77
2022/07/30 18:38:21;;;;;;;5.10;3.57;;;;;26.20;98965.00;;;;16772847;28;20311;-78
2022/07/30 18:46:24;;;;;;;4.20;3.90;;;;;25.80;98965.00;;;;16761589;28;20243;-78
2022/07/30 18:54:27;;;;;;;5.80;5.40;;;;;25.80;98975.00;;;;16749989;28;20710;-78
2022/07/30 19:02:31;;;;;;;6.70;5.97;;;;;25.30;98992.00;;;;16765253;28;20224;-79
2022/07/30 19:10:33;;;;;;;4.60;4.20;;;;;24.90;98994.00;;;;16754105;28;20284;-79
2022/07/30 19:18:37;;;;;;;6.13;4.47;;;;;24.60;99006.00;;;;16766465;28;20245;-79
2022/07/30 19:26:40;;;;;;;4.17;3.80;;;;;24.20;99013.00;;;;16785091;28;20308;-79
2022/07/30 19:34:43;;;;;;;4.63;4.00;;;;;24.10;99023.00;;;;16770325;28;20249;-78
2022/07/30 19:42:46;;;;;;;6.63;3.77;;;;;23.80;99027.00;;;;16781648;28;20684;-79
2022/07/30 19:50:50;;;;;;;4.83;3.93;;;;;23.40;99034.00;;;;16768695;28;20261;-79
2022/07/30 19:58:52;;;;;;;6.47;4.30;;;;;23.30;99040.00;;;;16775651;28;20648;-79
2022/07/30 20:06:56;;;;;;;4.90;4.07;;;;;23.10;99040.00;;;;16771526;28;20245;-79
2022/07/30 20:14:58;;;;;;;4.63;4.23;;;;;22.90;99052.00;;;;16777724;28;20604;-79
2022/07/30 20:23:02;;;;;;;8.20;4.60;;;;;22.80;99053.00;;;;16765845;28;20206;-79
2022/07/30 20:31:05;;;;;;;5.07;4.63;;;;;22.60;99061.00;;;;16764098;28;20229;-77
2022/07/30 20:39:09;;;;;;;5.37;4.87;;;;;22.40;99071.00;;;;16747207;28;20779;-78
2022/07/30 20:47:16;;;;;;;4.80;4.30;;;;;22.20;99068.00;;;;16758248;28;20222;-82
2022/07/30 20:55:20;;;;;;;5.07;4.57;;;;;22.10;99075.00;;;;16747806;28;20225;-78
2022/07/30 21:03:22;;;;;;;5.90;5.40;;;;;22.20;99068.00;;;;16757629;28;20284;-78
2022/07/30 21:11:26;;;;;;;5.07;4.67;;;;;22.00;99075.00;;;;16764012;28;20245;-79
2022/07/30 21:19:29;;;;;;;7.13;4.60;;;;;22.40;99074.00;;;;16750790;28;20217;-78
2022/07/30 21:27:32;;;;;;;5.47;4.97;;;;;21.90;99084.00;;;;16755646;28;20247;-79
2022/07/30 21:35:35;;;;;;;5.47;4.97;;;;;21.60;99088.00;;;;16744457;28;20242;-77
2022/07/30 21:43:39;;;;;;;5.10;4.50;;;;;21.70;99096.00;;;;16747460;28;20192;-78
2022/07/30 21:51:41;;;;;;;5.27;4.80;;;;;21.70;99103.00;;;;16770088;28;20717;-78
2022/07/30 21:59:45;;;;;;;5.40;4.90;;;;;21.60;99102.00;;;;16757957;28;20234;-78
2022/07/30 22:07:47;;;;;;;7.33;4.63;;;;;21.80;99124.00;;;;16749749;28;20217;-78
2022/07/30 22:15:52;;;;;;;5.20;4.70;;;;;21.70;99115.00;;;;16752476;28;20230;-78
2022/07/30 22:23:55;;;;;;;5.13;4.73;;;;;21.40;99120.00;;;;16750923;28;20197;-78
2022/07/30 22:31:59;;;;;;;5.87;5.47;;;;;21.60;99112.00;;;;16766841;28;20857;-79
2022/07/30 22:40:01;;;;;;;4.73;4.33;;;;;21.20;99118.00;;;;16765213;28;20234;-77
2022/07/30 22:48:06;;;;;;;8.60;4.70;;;;;21.50;99111.00;;;;16764695;28;20296;-78
2022/07/30 22:56:09;;;;;;;4.87;4.40;;;;;21.60;99109.00;;;;16763966;28;20963;-78
2022/07/30 23:04:13;;;;;;;6.17;5.57;;;;;21.50;99112.00;;;;16762785;28;20945;-79
2022/07/30 23:12:15;;;;;;;6.47;4.47;;;;;22.90;99097.00;;;;16764103;28;20245;-79
2022/07/30 23:20:20;;;;;;;8.27;5.80;;;;;22.50;99101.00;;;;16772830;28;20295;-79
2022/07/30 23:28:23;;;;;;;5.87;5.33;;;;;22.30;99102.00;;;;16771091;28;20311;-79
2022/07/30 23:36:27;;;;;;;6.67;5.50;;;;;21.80;99100.00;;;;16776020;28;20224;-79
2022/07/30 23:44:29;;;;;;;6.00;5.60;;;;;21.30;99096.00;;;;16759036;28;20247;-78
2022/07/30 23:52:33;;;;;;;5.70;5.20;;;;;21.00;99099.00;;;;16763280;28;20733;-78
